Observations

BIA Manual Entry


Date Temp Humidity Rainfall Dew Point Wind Direction Wind Speed Wind Pressure Condition Visibility
2025-05-10 11:59:32 30 73 0.00 24 280 7.6 1009 Cloudy 20 KM
2025-05-10 10:58:34 32 69 0.00 25 340 9.5 1010 Cloudy 20 KM
2025-05-10 09:59:53 31 68 0.00 24 270 3.8 1010 Cloudy 20 KM
2025-05-10 09:00:43 30 76 0.00 25 230 3.8 1010 Cloudy 20 KM
2025-05-10 07:57:42 26 87 0.00 24 240 3.8 1010 Partly Cloudy (Day) 15 km
2025-05-10 07:21:13 26 90 0.00 24 220 7.6 1009 Partly Cloudy (Day) 15 km
2025-05-10 06:00:44 26 89 0.00 24 200 5.7 1009 Partly Cloudy (Day) 10 km
2025-05-10 05:59:55 26 90 0.0 24 240 5.7 1008 Partly Cloudy (Night) 10 km
2025-05-10 03:59:54 26 89 0.0 24 200 3.8 1008 Partly Cloudy (Night) 10 km
2025-05-10 03:00:34 26 90 0.0 24 190 3.8 1008 Partly Cloudy (Night) 10 km
2025-05-10 02:01:09 26 24 240 3.8 1008 Partly Cloudy (Night) 10 km
2025-05-10 00:00:20 27 84 24 170 3.8 1009 Cloudy 10 km
2025-05-09 23:00:56 26 88 24 120 3.8 1010 Cloudy 10 km
2025-05-09 21:59:25 27 86 24 190 7.6 1009 Showers 10 KM
2025-05-09 21:01:44 28 83 24 150 5.7 1009 Lightning 10 km
2025-05-09 20:00:20 27 79 23 160 3.8 1009 Lightning 10 km
2025-05-09 18:59:44 27 75 22 210 1.9 1008 Thundershowers 09 km
2025-05-09 17:58:46 31 70 25 010 7.6 1008 Thunderstorm 10 km
2025-05-09 16:59:21 31 68 25 290 13.3 1007 Thunderstorm 10 km
2025-05-09 16:00:05 32 64 25 310 15.2 1006 Distant showers 10 km
2025-05-09 14:59:01 32 61 24 310 15.2 1007 Partly Cloudy (Day) 20 km
2025-05-09 14:00:25 32 66 25 200 5.7 1008 Distant showers 10 km
2025-05-09 13:00:55 32 65 25 320 15.2 1009 Showers 10 km
2025-05-09 12:00:00 31 66 24 200 3.8 1010 Distant showers 15 KM
2025-05-09 11:02:48 30 67 23 250 13.3 1011 Showers 9 KM